sensor_id;sensor_type;location;lat;lon;timestamp;P1;durP1;ratioP1;P2;durP2;ratioP2
23608;SDS011;11982;50.810;4.442;2023-06-10T00:01:13;13.65;;;10.00;;
23608;SDS011;11982;50.810;4.442;2023-06-10T00:03:38;15.23;;;10.20;;
23608;SDS011;11982;50.810;4.442;2023-06-10T00:06:06;15.57;;;10.80;;
23608;SDS011;11982;50.810;4.442;2023-06-10T00:08:32;16.27;;;10.77;;
23608;SDS011;11982;50.810;4.442;2023-06-10T00:10:58;12.82;;;10.60;;
23608;SDS011;11982;50.810;4.442;2023-06-10T00:13:23;12.07;;;9.63;;
23608;SDS011;11982;50.810;4.442;2023-06-10T00:15:50;12.82;;;10.73;;
23608;SDS011;11982;50.810;4.442;2023-06-10T00:18:15;11.85;;;10.43;;
23608;SDS011;11982;50.810;4.442;2023-06-10T00:20:46;12.93;;;10.48;;
23608;SDS011;11982;50.810;4.442;2023-06-10T00:23:13;13.25;;;11.02;;
23608;SDS011;11982;50.810;4.442;2023-06-10T00:25:39;14.18;;;10.73;;
23608;SDS011;11982;50.810;4.442;2023-06-10T00:28:05;12.75;;;10.10;;
23608;SDS011;11982;50.810;4.442;2023-06-10T00:30:31;13.68;;;11.48;;
23608;SDS011;11982;50.810;4.442;2023-06-10T00:32:56;17.75;;;11.18;;
23608;SDS011;11982;50.810;4.442;2023-06-10T00:35:22;13.43;;;11.15;;
23608;SDS011;11982;50.810;4.442;2023-06-10T00:37:47;12.77;;;10.90;;
23608;SDS011;11982;50.810;4.442;2023-06-10T00:40:13;18.05;;;11.95;;
23608;SDS011;11982;50.810;4.442;2023-06-10T00:42:39;17.92;;;11.27;;
23608;SDS011;11982;50.810;4.442;2023-06-10T00:45:05;14.50;;;11.00;;
23608;SDS011;11982;50.810;4.442;2023-06-10T00:47:31;17.73;;;11.20;;
23608;SDS011;11982;50.810;4.442;2023-06-10T00:49:57;14.50;;;11.35;;
23608;SDS011;11982;50.810;4.442;2023-06-10T00:52:24;12.82;;;10.85;;
23608;SDS011;11982;50.810;4.442;2023-06-10T00:54:54;15.55;;;11.30;;
23608;SDS011;11982;50.810;4.442;2023-06-10T00:57:20;19.75;;;11.77;;
23608;SDS011;11982;50.810;4.442;2023-06-10T00:59:47;16.48;;;11.05;;
23608;SDS011;11982;50.810;4.442;2023-06-10T01:02:14;13.88;;;11.57;;
23608;SDS011;11982;50.810;4.442;2023-06-10T01:04:39;17.80;;;11.27;;
23608;SDS011;11982;50.810;4.442;2023-06-10T01:10:04;14.32;;;11.27;;
23608;SDS011;11982;50.810;4.442;2023-06-10T01:12:54;15.80;;;11.38;;
23608;SDS011;11982;50.810;4.442;2023-06-10T01:15:27;15.90;;;11.18;;
23608;SDS011;11982;50.810;4.442;2023-06-10T01:18:03;13.10;;;11.27;;
23608;SDS011;11982;50.810;4.442;2023-06-10T01:20:33;16.27;;;11.32;;
23608;SDS011;11982;50.810;4.442;2023-06-10T01:23:02;13.60;;;11.35;;
23608;SDS011;11982;50.810;4.442;2023-06-10T01:25:28;14.25;;;11.20;;
23608;SDS011;11982;50.810;4.442;2023-06-10T01:28:12;12.38;;;11.02;;
23608;SDS011;11982;50.810;4.442;2023-06-10T01:36:17;14.23;;;12.02;;
23608;SDS011;11982;50.810;4.442;2023-06-10T01:38:44;14.23;;;12.25;;
23608;SDS011;11982;50.810;4.442;2023-06-10T01:41:12;15.80;;;11.27;;
23608;SDS011;11982;50.810;4.442;2023-06-10T01:43:40;14.20;;;12.70;;
23608;SDS011;11982;50.810;4.442;2023-06-10T01:46:11;16.25;;;11.82;;
23608;SDS011;11982;50.810;4.442;2023-06-10T01:48:40;17.63;;;12.30;;
23608;SDS011;11982;50.810;4.442;2023-06-10T01:51:09;16.20;;;12.68;;
23608;SDS011;11982;50.810;4.442;2023-06-10T01:53:35;19.45;;;11.88;;
23608;SDS011;11982;50.810;4.442;2023-06-10T01:56:01;17.45;;;12.68;;
23608;SDS011;11982;50.810;4.442;2023-06-10T01:58:26;15.73;;;12.52;;
23608;SDS011;11982;50.810;4.442;2023-06-10T02:00:52;17.50;;;12.57;;
23608;SDS011;11982;50.810;4.442;2023-06-10T02:03:17;14.43;;;12.75;;
23608;SDS011;11982;50.810;4.442;2023-06-10T02:05:43;14.75;;;12.30;;
23608;SDS011;11982;50.810;4.442;2023-06-10T02:08:09;18.35;;;13.13;;
23608;SDS011;11982;50.810;4.442;2023-06-10T02:10:35;17.00;;;13.60;;
23608;SDS011;11982;50.810;4.442;2023-06-10T02:13:00;14.85;;;12.13;;
23608;SDS011;11982;50.810;4.442;2023-06-10T02:15:26;18.05;;;12.80;;
23608;SDS011;11982;50.810;4.442;2023-06-10T02:17:52;18.50;;;12.63;;
23608;SDS011;11982;50.810;4.442;2023-06-10T02:20:18;16.90;;;12.93;;
23608;SDS011;11982;50.810;4.442;2023-06-10T02:22:44;13.30;;;11.90;;
23608;SDS011;11982;50.810;4.442;2023-06-10T02:25:09;17.23;;;12.93;;
23608;SDS011;11982;50.810;4.442;2023-06-10T02:27:35;15.10;;;12.90;;
23608;SDS011;11982;50.810;4.442;2023-06-10T02:30:01;16.30;;;13.48;;
23608;SDS011;11982;50.810;4.442;2023-06-10T02:32:26;18.02;;;14.10;;
23608;SDS011;11982;50.810;4.442;2023-06-10T02:34:53;19.02;;;13.25;;
23608;SDS011;11982;50.810;4.442;2023-06-10T02:37:19;15.32;;;13.38;;
23608;SDS011;11982;50.810;4.442;2023-06-10T02:39:45;15.82;;;13.85;;
23608;SDS011;11982;50.810;4.442;2023-06-10T02:42:11;20.00;;;14.27;;
23608;SDS011;11982;50.810;4.442;2023-06-10T02:44:37;16.38;;;13.82;;
23608;SDS011;11982;50.810;4.442;2023-06-10T02:47:03;15.77;;;13.63;;
23608;SDS011;11982;50.810;4.442;2023-06-10T02:49:29;16.27;;;14.65;;
23608;SDS011;11982;50.810;4.442;2023-06-10T02:51:55;16.00;;;13.98;;
23608;SDS011;11982;50.810;4.442;2023-06-10T02:54:25;15.82;;;14.23;;
23608;SDS011;11982;50.810;4.442;2023-06-10T02:56:51;17.52;;;14.07;;
23608;SDS011;11982;50.810;4.442;2023-06-10T02:59:17;18.95;;;13.77;;
23608;SDS011;11982;50.810;4.442;2023-06-10T03:01:43;17.83;;;14.07;;
23608;SDS011;11982;50.810;4.442;2023-06-10T03:04:09;15.82;;;13.65;;
23608;SDS011;11982;50.810;4.442;2023-06-10T03:06:35;18.30;;;13.70;;
23608;SDS011;11982;50.810;4.442;2023-06-10T03:09:01;16.23;;;13.73;;
23608;SDS011;11982;50.810;4.442;2023-06-10T03:11:29;20.13;;;13.98;;
23608;SDS011;11982;50.810;4.442;2023-06-10T03:13:54;16.73;;;14.38;;
23608;SDS011;11982;50.810;4.442;2023-06-10T03:16:21;17.67;;;14.48;;
23608;SDS011;11982;50.810;4.442;2023-06-10T03:18:46;16.40;;;14.63;;
23608;SDS011;11982;50.810;4.442;2023-06-10T03:21:12;17.77;;;14.23;;
23608;SDS011;11982;50.810;4.442;2023-06-10T03:23:38;18.65;;;14.50;;
23608;SDS011;11982;50.810;4.442;2023-06-10T03:26:04;22.90;;;14.88;;
23608;SDS011;11982;50.810;4.442;2023-06-10T03:28:32;16.80;;;14.18;;
23608;SDS011;11982;50.810;4.442;2023-06-10T03:30:58;18.65;;;14.35;;
23608;SDS011;11982;50.810;4.442;2023-06-10T03:33:24;19.42;;;14.93;;
23608;SDS011;11982;50.810;4.442;2023-06-10T03:35:49;16.08;;;14.35;;
23608;SDS011;11982;50.810;4.442;2023-06-10T03:38:15;16.00;;;14.30;;
23608;SDS011;11982;50.810;4.442;2023-06-10T03:40:41;18.27;;;14.50;;
23608;SDS011;11982;50.810;4.442;2023-06-10T03:43:07;19.25;;;14.90;;
23608;SDS011;11982;50.810;4.442;2023-06-10T03:45:32;15.90;;;14.30;;
23608;SDS011;11982;50.810;4.442;2023-06-10T03:47:58;18.33;;;14.23;;
23608;SDS011;11982;50.810;4.442;2023-06-10T03:50:25;18.17;;;14.85;;
23608;SDS011;11982;50.810;4.442;2023-06-10T03:52:51;21.45;;;14.73;;
23608;SDS011;11982;50.810;4.442;2023-06-10T03:55:17;18.17;;;15.43;;
23608;SDS011;11982;50.810;4.442;2023-06-10T03:57:43;16.10;;;14.50;;
23608;SDS011;11982;50.810;4.442;2023-06-10T04:00:09;18.50;;;14.77;;
23608;SDS011;11982;50.810;4.442;2023-06-10T04:02:38;20.33;;;14.73;;
23608;SDS011;11982;50.810;4.442;2023-06-10T04:05:11;17.05;;;14.90;;
23608;SDS011;11982;50.810;4.442;2023-06-10T04:07:37;17.70;;;14.48;;
23608;SDS011;11982;50.810;4.442;2023-06-10T04:10:06;16.98;;;14.07;;
23608;SDS011;11982;50.810;4.442;2023-06-10T04:12:32;18.65;;;14.45;;
23608;SDS011;11982;50.810;4.442;2023-06-10T04:14:57;15.73;;;13.73;;
23608;SDS011;11982;50.810;4.442;2023-06-10T04:17:24;21.13;;;14.27;;
23608;SDS011;11982;50.810;4.442;2023-06-10T04:19:50;16.75;;;13.85;;
23608;SDS011;11982;50.810;4.442;2023-06-10T04:22:17;18.42;;;14.60;;
23608;SDS011;11982;50.810;4.442;2023-06-10T04:24:43;17.38;;;14.82;;
23608;SDS011;11982;50.810;4.442;2023-06-10T04:27:09;16.38;;;14.68;;
23608;SDS011;11982;50.810;4.442;2023-06-10T04:29:35;15.52;;;13.57;;
23608;SDS011;11982;50.810;4.442;2023-06-10T04:32:01;15.43;;;13.70;;
23608;SDS011;11982;50.810;4.442;2023-06-10T04:34:27;14.88;;;13.27;;
23608;SDS011;11982;50.810;4.442;2023-06-10T04:36:53;17.92;;;13.00;;
23608;SDS011;11982;50.810;4.442;2023-06-10T04:39:19;15.23;;;12.90;;
23608;SDS011;11982;50.810;4.442;2023-06-10T04:41:45;21.50;;;13.45;;
23608;SDS011;11982;50.810;4.442;2023-06-10T04:44:11;17.45;;;13.38;;
23608;SDS011;11982;50.810;4.442;2023-06-10T04:46:37;15.57;;;13.68;;
23608;SDS011;11982;50.810;4.442;2023-06-10T04:49:03;17.10;;;13.50;;
23608;SDS011;11982;50.810;4.442;2023-06-10T04:51:30;15.48;;;12.65;;
23608;SDS011;11982;50.810;4.442;2023-06-10T04:53:56;17.95;;;13.70;;
23608;SDS011;11982;50.810;4.442;2023-06-10T04:56:22;18.17;;;13.50;;
23608;SDS011;11982;50.810;4.442;2023-06-10T04:58:49;18.42;;;14.18;;
23608;SDS011;11982;50.810;4.442;2023-06-10T05:01:15;15.77;;;13.35;;
23608;SDS011;11982;50.810;4.442;2023-06-10T05:03:40;17.20;;;13.73;;
23608;SDS011;11982;50.810;4.442;2023-06-10T05:06:06;17.23;;;13.32;;
23608;SDS011;11982;50.810;4.442;2023-06-10T05:08:32;17.10;;;13.00;;
23608;SDS011;11982;50.810;4.442;2023-06-10T05:10:58;19.10;;;13.30;;
23608;SDS011;11982;50.810;4.442;2023-06-10T05:13:24;18.17;;;14.10;;
23608;SDS011;11982;50.810;4.442;2023-06-10T05:15:50;17.52;;;13.38;;
23608;SDS011;11982;50.810;4.442;2023-06-10T05:18:15;15.07;;;13.05;;
23608;SDS011;11982;50.810;4.442;2023-06-10T05:20:41;15.93;;;13.45;;
23608;SDS011;11982;50.810;4.442;2023-06-10T05:23:07;17.60;;;13.80;;
23608;SDS011;11982;50.810;4.442;2023-06-10T05:25:33;15.40;;;13.15;;
23608;SDS011;11982;50.810;4.442;2023-06-10T05:27:58;15.45;;;12.85;;
23608;SDS011;11982;50.810;4.442;2023-06-10T05:30:24;18.27;;;12.38;;
23608;SDS011;11982;50.810;4.442;2023-06-10T05:32:51;16.17;;;12.93;;
23608;SDS011;11982;50.810;4.442;2023-06-10T05:35:17;15.15;;;12.52;;
23608;SDS011;11982;50.810;4.442;2023-06-10T05:37:43;15.27;;;12.60;;
23608;SDS011;11982;50.810;4.442;2023-06-10T05:40:09;13.82;;;12.43;;
23608;SDS011;11982;50.810;4.442;2023-06-10T05:42:35;15.07;;;12.50;;
23608;SDS011;11982;50.810;4.442;2023-06-10T05:45:02;17.45;;;12.60;;
23608;SDS011;11982;50.810;4.442;2023-06-10T05:47:28;17.52;;;13.18;;
23608;SDS011;11982;50.810;4.442;2023-06-10T05:49:54;17.60;;;11.82;;
23608;SDS011;11982;50.810;4.442;2023-06-10T05:52:20;19.00;;;12.88;;
23608;SDS011;11982;50.810;4.442;2023-06-10T05:54:45;17.63;;;13.05;;
23608;SDS011;11982;50.810;4.442;2023-06-10T05:57:11;15.32;;;12.80;;
23608;SDS011;11982;50.810;4.442;2023-06-10T05:59:37;16.55;;;12.23;;
23608;SDS011;11982;50.810;4.442;2023-06-10T06:02:03;19.13;;;13.18;;
23608;SDS011;11982;50.810;4.442;2023-06-10T06:04:28;17.52;;;13.05;;
23608;SDS011;11982;50.810;4.442;2023-06-10T06:06:54;16.45;;;13.05;;
23608;SDS011;11982;50.810;4.442;2023-06-10T06:09:20;17.00;;;12.43;;
23608;SDS011;11982;50.810;4.442;2023-06-10T06:11:45;15.68;;;12.05;;
23608;SDS011;11982;50.810;4.442;2023-06-10T06:14:11;15.60;;;12.15;;
23608;SDS011;11982;50.810;4.442;2023-06-10T06:16:37;14.10;;;11.43;;
23608;SDS011;11982;50.810;4.442;2023-06-10T06:19:03;14.57;;;12.13;;
23608;SDS011;11982;50.810;4.442;2023-06-10T06:21:29;14.57;;;12.57;;
23608;SDS011;11982;50.810;4.442;2023-06-10T06:23:55;16.17;;;11.77;;
23608;SDS011;11982;50.810;4.442;2023-06-10T06:26:20;14.30;;;11.60;;
23608;SDS011;11982;50.810;4.442;2023-06-10T06:28:46;13.93;;;11.90;;
23608;SDS011;11982;50.810;4.442;2023-06-10T06:31:12;12.82;;;11.43;;
23608;SDS011;11982;50.810;4.442;2023-06-10T06:33:37;18.48;;;11.82;;
23608;SDS011;11982;50.810;4.442;2023-06-10T06:36:03;16.45;;;11.48;;
23608;SDS011;11982;50.810;4.442;2023-06-10T06:38:29;16.80;;;11.75;;
23608;SDS011;11982;50.810;4.442;2023-06-10T06:40:55;16.02;;;11.25;;
23608;SDS011;11982;50.810;4.442;2023-06-10T06:43:20;17.50;;;11.63;;
23608;SDS011;11982;50.810;4.442;2023-06-10T06:45:46;17.42;;;11.45;;
23608;SDS011;11982;50.810;4.442;2023-06-10T06:48:12;12.40;;;10.88;;
23608;SDS011;11982;50.810;4.442;2023-06-10T06:50:38;12.25;;;10.77;;
23608;SDS011;11982;50.810;4.442;2023-06-10T06:53:04;13.15;;;10.88;;
23608;SDS011;11982;50.810;4.442;2023-06-10T06:55:29;14.40;;;11.35;;
23608;SDS011;11982;50.810;4.442;2023-06-10T06:57:55;17.67;;;12.13;;
23608;SDS011;11982;50.810;4.442;2023-06-10T07:00:21;15.55;;;11.50;;
23608;SDS011;11982;50.810;4.442;2023-06-10T07:02:47;24.27;;;13.77;;
23608;SDS011;11982;50.810;4.442;2023-06-10T07:05:13;16.00;;;10.93;;
23608;SDS011;11982;50.810;4.442;2023-06-10T07:07:39;16.75;;;11.05;;
23608;SDS011;11982;50.810;4.442;2023-06-10T07:10:05;11.90;;;10.55;;
23608;SDS011;11982;50.810;4.442;2023-06-10T07:15:34;15.23;;;10.65;;
23608;SDS011;11982;50.810;4.442;2023-06-10T07:17:59;17.05;;;10.38;;
23608;SDS011;11982;50.810;4.442;2023-06-10T07:20:25;13.90;;;10.65;;
23608;SDS011;11982;50.810;4.442;2023-06-10T07:22:51;13.70;;;10.25;;
23608;SDS011;11982;50.810;4.442;2023-06-10T07:25:16;15.38;;;10.55;;
23608;SDS011;11982;50.810;4.442;2023-06-10T07:27:42;15.73;;;10.55;;
23608;SDS011;11982;50.810;4.442;2023-06-10T07:30:08;13.38;;;10.40;;
23608;SDS011;11982;50.810;4.442;2023-06-10T07:32:34;14.55;;;10.40;;
23608;SDS011;11982;50.810;4.442;2023-06-10T07:34:59;10.48;;;9.38;;
23608;SDS011;11982;50.810;4.442;2023-06-10T07:37:25;15.40;;;10.60;;
23608;SDS011;11982;50.810;4.442;2023-06-10T07:39:51;11.77;;;9.88;;
23608;SDS011;11982;50.810;4.442;2023-06-10T07:42:17;12.88;;;9.65;;
23608;SDS011;11982;50.810;4.442;2023-06-10T07:44:42;11.93;;;9.70;;
23608;SDS011;11982;50.810;4.442;2023-06-10T07:47:08;12.43;;;9.95;;
23608;SDS011;11982;50.810;4.442;2023-06-10T07:49:34;16.40;;;10.77;;
23608;SDS011;11982;50.810;4.442;2023-06-10T07:51:59;13.80;;;10.30;;
23608;SDS011;11982;50.810;4.442;2023-06-10T07:54:25;15.07;;;9.98;;
23608;SDS011;11982;50.810;4.442;2023-06-10T07:56:51;10.73;;;9.38;;
23608;SDS011;11982;50.810;4.442;2023-06-10T07:59:18;14.73;;;9.70;;
23608;SDS011;11982;50.810;4.442;2023-06-10T08:01:44;16.00;;;10.38;;
23608;SDS011;11982;50.810;4.442;2023-06-10T08:04:10;15.07;;;10.70;;
23608;SDS011;11982;50.810;4.442;2023-06-10T08:06:36;14.20;;;9.45;;
23608;SDS011;11982;50.810;4.442;2023-06-10T08:09:02;10.05;;;9.02;;
23608;SDS011;11982;50.810;4.442;2023-06-10T08:11:28;14.13;;;10.15;;
23608;SDS011;11982;50.810;4.442;2023-06-10T08:13:54;14.63;;;9.80;;
23608;SDS011;11982;50.810;4.442;2023-06-10T08:16:20;13.45;;;9.32;;
23608;SDS011;11982;50.810;4.442;2023-06-10T08:18:46;12.07;;;9.73;;
23608;SDS011;11982;50.810;4.442;2023-06-10T08:21:12;11.40;;;9.13;;
23608;SDS011;11982;50.810;4.442;2023-06-10T08:23:37;13.52;;;9.63;;
23608;SDS011;11982;50.810;4.442;2023-06-10T08:26:04;12.45;;;9.50;;
23608;SDS011;11982;50.810;4.442;2023-06-10T08:31:15;11.73;;;8.75;;
23608;SDS011;11982;50.810;4.442;2023-06-10T08:33:41;10.57;;;9.48;;
23608;SDS011;11982;50.810;4.442;2023-06-10T08:36:07;10.70;;;9.50;;
23608;SDS011;11982;50.810;4.442;2023-06-10T08:38:33;10.88;;;9.13;;
23608;SDS011;11982;50.810;4.442;2023-06-10T08:40:59;12.18;;;8.55;;
23608;SDS011;11982;50.810;4.442;2023-06-10T08:43:45;11.23;;;9.07;;
23608;SDS011;11982;50.810;4.442;2023-06-10T08:46:35;14.23;;;10.07;;
23608;SDS011;11982;50.810;4.442;2023-06-10T08:49:05;10.55;;;9.35;;
23608;SDS011;11982;50.810;4.442;2023-06-10T08:51:32;11.48;;;9.30;;
23608;SDS011;11982;50.810;4.442;2023-06-10T08:54:01;13.48;;;8.98;;
23608;SDS011;11982;50.810;4.442;2023-06-10T08:56:31;9.95;;;8.80;;
23608;SDS011;11982;50.810;4.442;2023-06-10T08:59:03;10.68;;;9.02;;
23608;SDS011;11982;50.810;4.442;2023-06-10T09:01:30;10.13;;;8.82;;
23608;SDS011;11982;50.810;4.442;2023-06-10T09:03:57;9.82;;;8.70;;
23608;SDS011;11982;50.810;4.442;2023-06-10T09:06:24;11.30;;;9.65;;
23608;SDS011;11982;50.810;4.442;2023-06-10T09:08:50;15.80;;;9.40;;
23608;SDS011;11982;50.810;4.442;2023-06-10T09:11:17;10.95;;;9.18;;
23608;SDS011;11982;50.810;4.442;2023-06-10T09:13:42;9.70;;;8.70;;
23608;SDS011;11982;50.810;4.442;2023-06-10T09:16:08;10.23;;;8.50;;
23608;SDS011;11982;50.810;4.442;2023-06-10T09:18:36;12.30;;;8.45;;
23608;SDS011;11982;50.810;4.442;2023-06-10T09:21:02;10.90;;;8.93;;
23608;SDS011;11982;50.810;4.442;2023-06-10T09:23:28;9.27;;;8.13;;
23608;SDS011;11982;50.810;4.442;2023-06-10T09:25:58;10.55;;;7.75;;
23608;SDS011;11982;50.810;4.442;2023-06-10T09:28:24;10.63;;;7.88;;
23608;SDS011;11982;50.810;4.442;2023-06-10T09:30:50;11.50;;;8.55;;
23608;SDS011;11982;50.810;4.442;2023-06-10T09:33:30;10.93;;;9.18;;
23608;SDS011;11982;50.810;4.442;2023-06-10T09:35:56;14.05;;;8.57;;
23608;SDS011;11982;50.810;4.442;2023-06-10T09:38:29;12.38;;;8.20;;
23608;SDS011;11982;50.810;4.442;2023-06-10T09:40:59;10.52;;;8.48;;
23608;SDS011;11982;50.810;4.442;2023-06-10T09:46:17;8.68;;;7.65;;
23608;SDS011;11982;50.810;4.442;2023-06-10T09:48:44;10.75;;;7.30;;
23608;SDS011;11982;50.810;4.442;2023-06-10T09:51:11;8.82;;;7.95;;
23608;SDS011;11982;50.810;4.442;2023-06-10T09:53:38;9.02;;;8.00;;
23608;SDS011;11982;50.810;4.442;2023-06-10T09:56:03;12.80;;;8.02;;
23608;SDS011;11982;50.810;4.442;2023-06-10T09:58:34;11.60;;;7.68;;
23608;SDS011;11982;50.810;4.442;2023-06-10T10:01:05;9.65;;;8.20;;
23608;SDS011;11982;50.810;4.442;2023-06-10T10:03:31;8.88;;;7.97;;
23608;SDS011;11982;50.810;4.442;2023-06-10T10:05:58;12.57;;;8.02;;
23608;SDS011;11982;50.810;4.442;2023-06-10T10:08:27;10.05;;;8.63;;
23608;SDS011;11982;50.810;4.442;2023-06-10T10:10:53;11.07;;;8.07;;
23608;SDS011;11982;50.810;4.442;2023-06-10T10:13:21;10.07;;;7.63;;
23608;SDS011;11982;50.810;4.442;2023-06-10T10:15:47;12.00;;;7.50;;
23608;SDS011;11982;50.810;4.442;2023-06-10T10:18:14;9.43;;;7.30;;
23608;SDS011;11982;50.810;4.442;2023-06-10T10:20:46;10.45;;;7.70;;
23608;SDS011;11982;50.810;4.442;2023-06-10T10:23:21;10.77;;;7.85;;
23608;SDS011;11982;50.810;4.442;2023-06-10T10:25:55;11.05;;;7.43;;
23608;SDS011;11982;50.810;4.442;2023-06-10T10:28:24;8.38;;;7.57;;
23608;SDS011;11982;50.810;4.442;2023-06-10T10:30:53;10.50;;;8.10;;
23608;SDS011;11982;50.810;4.442;2023-06-10T10:33:29;9.80;;;7.72;;
23608;SDS011;11982;50.810;4.442;2023-06-10T10:36:01;8.65;;;7.15;;
23608;SDS011;11982;50.810;4.442;2023-06-10T10:38:27;12.68;;;7.72;;
23608;SDS011;11982;50.810;4.442;2023-06-10T10:40:53;8.73;;;7.68;;
23608;SDS011;11982;50.810;4.442;2023-06-10T10:43:24;9.32;;;7.22;;
23608;SDS011;11982;50.810;4.442;2023-06-10T10:46:00;8.43;;;7.55;;
23608;SDS011;11982;50.810;4.442;2023-06-10T10:48:35;9.45;;;7.20;;
23608;SDS011;11982;50.810;4.442;2023-06-10T10:51:03;11.20;;;7.40;;
23608;SDS011;11982;50.810;4.442;2023-06-10T10:53:29;7.45;;;6.75;;
23608;SDS011;11982;50.810;4.442;2023-06-10T10:56:14;9.30;;;7.20;;
23608;SDS011;11982;50.810;4.442;2023-06-10T10:58:52;8.05;;;7.07;;
23608;SDS011;11982;50.810;4.442;2023-06-10T11:01:40;9.85;;;6.93;;
23608;SDS011;11982;50.810;4.442;2023-06-10T11:04:07;8.60;;;7.70;;
23608;SDS011;11982;50.810;4.442;2023-06-10T11:06:34;9.68;;;6.78;;
23608;SDS011;11982;50.810;4.442;2023-06-10T11:09:00;8.57;;;7.38;;
23608;SDS011;11982;50.810;4.442;2023-06-10T11:11:49;8.70;;;7.80;;
23608;SDS011;11982;50.810;4.442;2023-06-10T11:14:15;8.20;;;7.38;;
23608;SDS011;11982;50.810;4.442;2023-06-10T11:16:58;8.00;;;6.65;;
23608;SDS011;11982;50.810;4.442;2023-06-10T11:19:45;6.88;;;6.18;;
23608;SDS011;11982;50.810;4.442;2023-06-10T11:22:15;10.30;;;7.05;;
23608;SDS011;11982;50.810;4.442;2023-06-10T11:24:47;9.70;;;6.90;;
23608;SDS011;11982;50.810;4.442;2023-06-10T11:27:18;12.25;;;6.93;;
23608;SDS011;11982;50.810;4.442;2023-06-10T11:32:33;7.10;;;6.30;;
23608;SDS011;11982;50.810;4.442;2023-06-10T11:35:00;9.27;;;6.95;;
23608;SDS011;11982;50.810;4.442;2023-06-10T11:37:28;11.30;;;8.15;;
23608;SDS011;11982;50.810;4.442;2023-06-10T11:39:54;8.07;;;7.13;;
23608;SDS011;11982;50.810;4.442;2023-06-10T11:42:24;10.38;;;6.93;;
23608;SDS011;11982;50.810;4.442;2023-06-10T11:44:53;11.23;;;7.35;;
23608;SDS011;11982;50.810;4.442;2023-06-10T11:47:19;9.18;;;7.10;;
23608;SDS011;11982;50.810;4.442;2023-06-10T11:49:55;13.10;;;6.97;;
23608;SDS011;11982;50.810;4.442;2023-06-10T11:52:28;10.60;;;7.72;;
23608;SDS011;11982;50.810;4.442;2023-06-10T11:54:57;10.77;;;7.38;;
23608;SDS011;11982;50.810;4.442;2023-06-10T11:57:23;8.77;;;7.40;;
23608;SDS011;11982;50.810;4.442;2023-06-10T11:59:48;8.82;;;6.80;;
23608;SDS011;11982;50.810;4.442;2023-06-10T12:02:15;11.52;;;8.55;;
23608;SDS011;11982;50.810;4.442;2023-06-10T12:04:41;9.63;;;7.85;;
23608;SDS011;11982;50.810;4.442;2023-06-10T12:07:07;12.40;;;7.20;;
23608;SDS011;11982;50.810;4.442;2023-06-10T12:09:33;8.90;;;7.43;;
23608;SDS011;11982;50.810;4.442;2023-06-10T12:11:59;14.38;;;7.65;;
23608;SDS011;11982;50.810;4.442;2023-06-10T12:20:01;7.88;;;7.13;;
23608;SDS011;11982;50.810;4.442;2023-06-10T12:22:36;7.82;;;7.13;;
23608;SDS011;11982;50.810;4.442;2023-06-10T12:25:09;9.05;;;7.70;;
23608;SDS011;11982;50.810;4.442;2023-06-10T12:27:36;8.15;;;7.32;;
23608;SDS011;11982;50.810;4.442;2023-06-10T12:30:03;10.02;;;7.45;;
23608;SDS011;11982;50.810;4.442;2023-06-10T12:32:40;8.73;;;7.75;;
23608;SDS011;11982;50.810;4.442;2023-06-10T12:35:08;15.23;;;8.00;;
23608;SDS011;11982;50.810;4.442;2023-06-10T12:37:35;9.23;;;7.80;;
23608;SDS011;11982;50.810;4.442;2023-06-10T12:40:02;8.32;;;7.43;;
23608;SDS011;11982;50.810;4.442;2023-06-10T12:42:29;10.95;;;7.45;;
23608;SDS011;11982;50.810;4.442;2023-06-10T12:44:58;10.85;;;8.25;;
23608;SDS011;11982;50.810;4.442;2023-06-10T12:47:32;11.70;;;8.25;;
23608;SDS011;11982;50.810;4.442;2023-06-10T12:50:03;9.48;;;8.57;;
23608;SDS011;11982;50.810;4.442;2023-06-10T12:52:29;9.00;;;7.93;;
23608;SDS011;11982;50.810;4.442;2023-06-10T12:54:55;12.95;;;7.55;;
23608;SDS011;11982;50.810;4.442;2023-06-10T12:57:21;10.57;;;7.95;;
23608;SDS011;11982;50.810;4.442;2023-06-10T12:59:47;8.50;;;7.70;;
23608;SDS011;11982;50.810;4.442;2023-06-10T13:02:22;12.15;;;8.20;;
23608;SDS011;11982;50.810;4.442;2023-06-10T13:04:52;8.60;;;7.70;;
23608;SDS011;11982;50.810;4.442;2023-06-10T13:07:18;12.63;;;8.30;;
23608;SDS011;11982;50.810;4.442;2023-06-10T13:09:44;9.73;;;7.18;;
23608;SDS011;11982;50.810;4.442;2023-06-10T13:12:13;12.05;;;8.00;;
23608;SDS011;11982;50.810;4.442;2023-06-10T13:14:49;10.15;;;7.43;;
23608;SDS011;11982;50.810;4.442;2023-06-10T13:19:53;8.32;;;7.53;;
23608;SDS011;11982;50.810;4.442;2023-06-10T13:22:18;11.35;;;7.50;;
23608;SDS011;11982;50.810;4.442;2023-06-10T13:24:45;12.35;;;8.02;;
23608;SDS011;11982;50.810;4.442;2023-06-10T13:27:11;10.82;;;7.18;;
23608;SDS011;11982;50.810;4.442;2023-06-10T13:29:39;9.27;;;7.43;;
23608;SDS011;11982;50.810;4.442;2023-06-10T13:32:05;11.27;;;7.63;;
23608;SDS011;11982;50.810;4.442;2023-06-10T13:34:31;8.00;;;6.97;;
23608;SDS011;11982;50.810;4.442;2023-06-10T13:36:57;10.50;;;7.50;;
23608;SDS011;11982;50.810;4.442;2023-06-10T13:39:23;8.95;;;7.57;;
23608;SDS011;11982;50.810;4.442;2023-06-10T13:41:49;10.65;;;7.75;;
23608;SDS011;11982;50.810;4.442;2023-06-10T13:44:15;10.45;;;7.82;;
23608;SDS011;11982;50.810;4.442;2023-06-10T13:46:40;9.48;;;7.22;;
23608;SDS011;11982;50.810;4.442;2023-06-10T13:49:06;9.52;;;7.18;;
23608;SDS011;11982;50.810;4.442;2023-06-10T13:51:32;12.10;;;7.13;;
23608;SDS011;11982;50.810;4.442;2023-06-10T13:53:57;7.97;;;7.18;;
23608;SDS011;11982;50.810;4.442;2023-06-10T13:56:23;9.95;;;6.90;;
23608;SDS011;11982;50.810;4.442;2023-06-10T13:58:50;8.70;;;7.03;;
23608;SDS011;11982;50.810;4.442;2023-06-10T14:01:15;8.25;;;7.00;;
23608;SDS011;11982;50.810;4.442;2023-06-10T14:03:41;12.00;;;7.10;;
23608;SDS011;11982;50.810;4.442;2023-06-10T14:06:07;8.23;;;7.30;;
23608;SDS011;11982;50.810;4.442;2023-06-10T14:08:33;10.43;;;6.75;;
23608;SDS011;11982;50.810;4.442;2023-06-10T14:10:59;9.88;;;7.57;;
23608;SDS011;11982;50.810;4.442;2023-06-10T14:13:25;8.43;;;7.43;;
23608;SDS011;11982;50.810;4.442;2023-06-10T14:15:51;8.57;;;7.20;;
23608;SDS011;11982;50.810;4.442;2023-06-10T14:18:17;14.02;;;7.70;;
23608;SDS011;11982;50.810;4.442;2023-06-10T14:20:43;8.75;;;6.85;;
23608;SDS011;11982;50.810;4.442;2023-06-10T14:23:09;10.85;;;7.47;;
23608;SDS011;11982;50.810;4.442;2023-06-10T14:25:34;10.07;;;7.57;;
23608;SDS011;11982;50.810;4.442;2023-06-10T14:28:00;9.82;;;7.20;;
23608;SDS011;11982;50.810;4.442;2023-06-10T14:30:26;11.30;;;7.30;;
23608;SDS011;11982;50.810;4.442;2023-06-10T14:32:51;14.68;;;7.55;;
23608;SDS011;11982;50.810;4.442;2023-06-10T14:35:17;8.88;;;7.20;;
23608;SDS011;11982;50.810;4.442;2023-06-10T14:37:42;9.10;;;7.43;;
23608;SDS011;11982;50.810;4.442;2023-06-10T14:40:08;8.27;;;7.35;;
23608;SDS011;11982;50.810;4.442;2023-06-10T14:42:34;9.95;;;6.95;;
23608;SDS011;11982;50.810;4.442;2023-06-10T14:45:00;10.32;;;6.95;;
23608;SDS011;11982;50.810;4.442;2023-06-10T14:47:26;8.02;;;7.28;;
23608;SDS011;11982;50.810;4.442;2023-06-10T14:49:52;8.60;;;7.30;;
23608;SDS011;11982;50.810;4.442;2023-06-10T14:52:17;8.88;;;6.75;;
23608;SDS011;11982;50.810;4.442;2023-06-10T14:54:43;9.60;;;6.50;;
23608;SDS011;11982;50.810;4.442;2023-06-10T14:57:09;8.80;;;7.28;;
23608;SDS011;11982;50.810;4.442;2023-06-10T14:59:35;7.82;;;7.03;;